Time;durP1;ratioP1;P1;durP2;ratioP2;P2;SDS_P1;SDS_P2;PMS_P1;PMS_P2;Temp;Humidity;BMP_temperature;BMP_pressure;BME280_temperature;BME280_humidity;BME280_pressure;Samples;Min_cycle;Max_cycle;Signal;HPM_P1;HPM_P2
2023/04/21 00:01:28;;;;;;;22.37;11.03;;;8.80;99.90;;;;;;5077729;28;20032;-62
2023/04/21 00:03:55;;;;;;;17.87;9.93;;;8.80;99.90;;;;;;5077280;28;20035;-62
2023/04/21 00:06:22;;;;;;;16.80;10.27;;;8.80;99.90;;;;;;5063479;28;20024;-62
2023/04/21 00:08:48;;;;;;;;;;;8.80;99.90;;;;;;5075546;28;20451;-62
2023/04/21 00:11:14;;;;;;;21.75;9.95;;;8.80;99.90;;;;;;5076512;28;19987;-62
2023/04/21 00:13:39;;;;;;;20.53;11.57;;;8.80;99.90;;;;;;5077112;28;20028;-62
2023/04/21 00:16:06;;;;;;;21.93;11.60;;;8.80;99.90;;;;;;5072402;28;20269;-62
2023/04/21 00:18:32;;;;;;;17.63;9.10;;;8.80;99.90;;;;;;5076617;28;20480;-62
2023/04/21 00:20:58;;;;;;;20.58;11.20;;;8.80;99.90;;;;;;5077024;28;20411;-62
2023/04/21 00:23:24;;;;;;;23.10;11.00;;;8.70;99.90;;;;;;5076712;28;20035;-62
2023/04/21 00:25:51;;;;;;;20.97;10.97;;;8.70;99.90;;;;;;5077121;28;20359;-62
2023/04/21 00:28:16;;;;;;;20.30;11.60;;;8.70;99.90;;;;;;5076689;28;20075;-62
2023/04/21 00:30:42;;;;;;;23.30;11.73;;;8.70;99.90;;;;;;5076486;28;20048;-62
2023/04/21 00:33:08;;;;;;;26.67;12.17;;;8.70;99.90;;;;;;5076956;28;20024;-63
2023/04/21 00:35:34;;;;;;;25.63;11.77;;;8.60;99.90;;;;;;5076735;28;20020;-62
2023/04/21 00:38:00;;;;;;;24.77;13.07;;;8.60;99.90;;;;;;5076849;28;20028;-62
2023/04/21 00:40:26;;;;;;;23.37;12.07;;;8.60;99.90;;;;;;5076433;28;20261;-63
2023/04/21 00:42:52;;;;;;;22.13;12.57;;;8.50;99.90;;;;;;5076410;28;20070;-63
2023/04/21 00:45:17;;;;;;;20.63;11.70;;;8.50;99.90;;;;;;5076708;28;20273;-63
2023/04/21 00:47:43;;;;;;;25.47;13.97;;;8.50;99.90;;;;;;5076248;28;20292;-62
2023/04/21 00:50:10;;;;;;;22.67;12.70;;;8.40;99.90;;;;;;5076561;28;20063;-73
2023/04/21 00:52:38;;;;;;;23.58;12.70;;;8.40;99.90;;;;;;5076027;28;20016;-62
2023/04/21 00:55:04;;;;;;;27.35;13.15;;;8.40;99.90;;;;;;5076437;28;20101;-63
2023/04/21 00:57:31;;;;;;;28.60;12.63;;;8.40;99.90;;;;;;5075027;28;20054;-62
2023/04/21 00:59:57;;;;;;;24.10;13.43;;;8.40;99.90;;;;;;5076452;28;20035;-63
2023/04/21 01:02:23;;;;;;;28.83;13.70;;;8.40;99.90;;;;;;5075949;28;20032;-62
2023/04/21 01:04:49;;;;;;;26.93;12.43;;;8.40;99.90;;;;;;5076582;28;20074;-63
2023/04/21 01:07:14;;;;;;;27.17;14.33;;;8.30;99.90;;;;;;5076394;28;20419;-62
2023/04/21 01:09:40;;;;;;;26.63;13.97;;;8.30;99.90;;;;;;5075834;28;20646;-62
2023/04/21 01:12:10;;;;;;;25.00;13.63;;;8.30;99.90;;;;;;5076127;28;20020;-62
2023/04/21 01:14:37;;;;;;;26.77;13.95;;;8.30;99.90;;;;;;5076147;28;21965;-62
2023/04/21 01:17:06;;;;;;;;;;;8.30;99.90;;;;;;5076310;28;20024;-62
2023/04/21 01:19:38;;;;;;;26.33;13.60;;;8.30;99.90;;;;;;5075424;28;19987;-63
2023/04/21 01:22:06;;;;;;;26.73;12.90;;;8.30;99.90;;;;;;5075962;28;20099;-63
2023/04/21 01:24:43;;;;;;;28.48;14.45;;;8.30;99.90;;;;;;5075746;28;20024;-63
2023/04/21 01:27:11;;;;;;;25.95;14.02;;;8.30;99.90;;;;;;5062907;28;20021;-63
2023/04/21 01:29:38;;;;;;;31.23;14.82;;;8.30;99.90;;;;;;5075743;28;20067;-63
2023/04/21 01:32:15;;;;;;;25.10;14.73;;;8.20;99.90;;;;;;5075405;28;20019;-63
2023/04/21 01:34:42;;;;;;;26.48;14.07;;;8.20;99.90;;;;;;5075707;28;20028;-62
2023/04/21 01:37:13;;;;;;;31.98;15.52;;;8.30;99.90;;;;;;5075604;28;20028;-63
2023/04/21 01:39:40;;;;;;;27.02;14.85;;;8.30;99.90;;;;;;5075646;28;20099;-63
2023/04/21 01:42:06;;;;;;;27.90;15.02;;;8.30;99.90;;;;;;5075209;28;20047;-63
2023/04/21 01:44:32;;;;;;;29.50;15.63;;;8.30;99.90;;;;;;5075404;28;20055;-63
2023/04/21 01:46:57;;;;;;;37.87;18.23;;;8.30;99.90;;;;;;5075048;28;20033;-63
2023/04/21 01:49:23;;;;;;;31.40;16.60;;;8.30;99.90;;;;;;5075524;28;20017;-62
2023/04/21 01:51:49;;;;;;;30.17;15.73;;;8.30;99.90;;;;;;5074939;28;20020;-63
2023/04/21 01:54:15;;;;;;;29.43;15.33;;;8.30;99.90;;;;;;5075293;28;20028;-62
2023/04/21 01:56:41;;;;;;;30.47;16.13;;;8.20;99.90;;;;;;5074100;28;20029;-63
2023/04/21 01:59:06;;;;;;;32.13;16.73;;;8.30;99.90;;;;;;5075019;28;20306;-62
2023/04/21 02:01:32;;;;;;;30.83;16.20;;;8.30;99.90;;;;;;5075343;28;20021;-62
2023/04/21 02:03:58;;;;;;;35.50;16.70;;;8.40;99.90;;;;;;5075009;28;20021;-75
2023/04/21 02:06:24;;;;;;;31.70;16.47;;;8.30;99.90;;;;;;5075145;28;20021;-62
2023/04/21 02:08:49;;;;;;;28.57;16.27;;;8.30;99.90;;;;;;5074822;28;20021;-62
2023/04/21 02:11:15;;;;;;;36.43;17.13;;;8.40;99.90;;;;;;5073891;28;20138;-63
2023/04/21 02:13:41;;;;;;;32.60;17.67;;;8.30;99.90;;;;;;5074957;28;20028;-63
2023/04/21 02:16:06;;;;;;;29.77;16.33;;;8.40;99.90;;;;;;5074607;28;20438;-63
2023/04/21 02:18:34;;;;;;;32.30;16.30;;;8.40;99.90;;;;;;5075048;28;20206;-63
2023/04/21 02:21:00;;;;;;;30.85;16.40;;;8.40;99.90;;;;;;5074825;28;20028;-63
2023/04/21 02:23:25;;;;;;;31.53;16.77;;;8.40;99.90;;;;;;5074610;28;20031;-63
2023/04/21 02:25:51;;;;;;;32.07;17.07;;;8.40;99.90;;;;;;5075035;28;20032;-63
2023/04/21 02:28:17;;;;;;;30.20;16.27;;;8.40;99.90;;;;;;5074391;28;20032;-63
2023/04/21 02:30:42;;;;;;;30.97;15.97;;;8.30;99.90;;;;;;5075010;28;20415;-76
2023/04/21 02:33:08;;;;;;;31.30;16.63;;;8.30;99.90;;;;;;5073227;28;20025;-63
2023/04/21 02:35:34;;;;;;;30.17;16.33;;;8.40;99.90;;;;;;5075125;28;20052;-63
2023/04/21 02:38:05;;;;;;;35.20;18.23;;;8.40;99.90;;;;;;5075289;28;20339;-63
2023/04/21 02:40:30;;;;;;;31.98;16.70;;;8.40;99.90;;;;;;5074348;28;20686;-63
2023/04/21 02:42:56;;;;;;;30.80;17.73;;;8.40;99.90;;;;;;5074944;28;20039;-63
2023/04/21 02:45:22;;;;;;;34.17;16.60;;;8.40;99.90;;;;;;5074213;28;20040;-63
2023/04/21 02:47:47;;;;;;;34.60;16.37;;;8.40;99.90;;;;;;5074857;28;20028;-63
2023/04/21 02:50:13;;;;;;;31.07;16.43;;;8.40;99.90;;;;;;5074247;28;20104;-63
2023/04/21 02:52:39;;;;;;;34.30;17.40;;;8.40;99.90;;;;;;5074992;28;20078;-63
2023/04/21 02:55:05;;;;;;;33.97;16.33;;;8.40;99.90;;;;;;5074610;28;20036;-63
2023/04/21 02:57:31;;;;;;;29.38;16.92;;;8.40;99.90;;;;;;5074623;28;20029;-63
2023/04/21 02:59:56;;;;;;;28.70;16.23;;;8.50;99.90;;;;;;5074599;28;20051;-63
2023/04/21 03:02:22;;;;;;;25.30;14.27;;;8.40;99.90;;;;;;5074373;28;20039;-63
2023/04/21 03:04:48;;;;;;;28.30;15.37;;;8.40;99.90;;;;;;5074519;28;20083;-75
2023/04/21 03:07:13;;;;;;;26.00;15.23;;;8.40;99.90;;;;;;5074294;28;20143;-63
2023/04/21 03:09:40;;;;;;;31.37;15.90;;;8.40;99.90;;;;;;5074476;28;20028;-63
2023/04/21 03:12:05;;;;;;;29.95;15.23;;;8.40;99.90;;;;;;5074558;28;20036;-63
2023/04/21 03:14:31;;;;;;;28.93;16.17;;;8.30;99.90;;;;;;5074387;28;20028;-64
2023/04/21 03:16:57;;;;;;;34.00;17.23;;;8.40;99.90;;;;;;5074403;28;20319;-63
2023/04/21 03:19:22;;;;;;;26.87;15.43;;;8.30;99.90;;;;;;5074314;28;20028;-64
2023/04/21 03:21:48;;;;;;;29.20;15.10;;;8.40;99.90;;;;;;5074009;28;20104;-63
2023/04/21 03:24:14;;;;;;;29.63;14.40;;;8.40;99.90;;;;;;5073536;28;20382;-64
2023/04/21 03:26:40;;;;;;;30.33;15.90;;;8.40;99.90;;;;;;5077322;28;20406;-63
2023/04/21 03:29:06;;;;;;;27.77;15.23;;;8.30;99.90;;;;;;5078108;28;20076;-63
2023/04/21 03:31:32;;;;;;;31.83;15.57;;;8.30;99.90;;;;;;5077717;28;20032;-77
2023/04/21 03:33:58;;;;;;;25.00;13.73;;;8.30;99.90;;;;;;5077917;28;20473;-63
2023/04/21 03:36:23;;;;;;;31.10;14.27;;;8.30;99.90;;;;;;5077909;28;20092;-63
2023/04/21 03:38:49;;;;;;;22.20;12.77;;;8.30;99.90;;;;;;5077729;28;20366;-63
2023/04/21 03:41:15;;;;;;;24.90;13.03;;;8.30;99.90;;;;;;5077780;28;20020;-63
2023/04/21 03:43:41;;;;;;;26.40;14.03;;;8.30;99.90;;;;;;5077464;28;20318;-63
2023/04/21 03:46:06;;;;;;;25.73;12.03;;;8.30;99.90;;;;;;5077896;28;20024;-63
2023/04/21 03:48:32;;;;;;;20.93;11.70;;;8.40;99.90;;;;;;5077682;28;20370;-74
2023/04/21 03:50:58;;;;;;;19.40;11.77;;;8.40;99.90;;;;;;5077858;28;20028;-63
2023/04/21 03:53:23;;;;;;;24.90;11.33;;;8.40;99.90;;;;;;5077653;28;20431;-63
2023/04/21 03:55:50;;;;;;;19.97;11.43;;;8.30;99.90;;;;;;5077448;28;20021;-63
2023/04/21 03:58:16;;;;;;;22.15;11.90;;;8.30;99.90;;;;;;5077809;28;20035;-63
2023/04/21 04:00:42;;;;;;;21.73;11.82;;;8.40;99.90;;;;;;5077355;28;20020;-63
2023/04/21 04:03:08;;;;;;;21.85;11.20;;;8.40;99.90;;;;;;5077727;28;20017;-62
2023/04/21 04:05:36;;;;;;;20.53;10.77;;;8.50;99.90;;;;;;5076922;28;20101;-63
2023/04/21 04:08:02;;;;;;;22.77;10.98;;;8.40;99.90;;;;;;5077567;28;20020;-63
2023/04/21 04:10:28;;;;;;;21.05;11.45;;;8.40;99.90;;;;;;5077312;28;20021;-63
2023/04/21 04:12:54;;;;;;;24.53;11.53;;;8.30;99.90;;;;;;5077076;28;20131;-63
2023/04/21 04:15:20;;;;;;;23.00;11.97;;;8.50;99.90;;;;;;5077217;28;20051;-63
2023/04/21 04:17:46;;;;;;;24.17;12.20;;;8.50;99.90;;;;;;5076852;28;20031;-62
2023/04/21 04:20:11;;;;;;;23.73;12.67;;;8.50;99.90;;;;;;5076852;28;20024;-62
2023/04/21 04:22:37;;;;;;;23.70;12.33;;;8.50;99.90;;;;;;5077592;28;20116;-62
2023/04/21 04:25:04;;;;;;;21.83;12.33;;;8.50;99.90;;;;;;5076826;28;20361;-63
2023/04/21 04:27:29;;;;;;;20.90;11.18;;;8.50;99.90;;;;;;5077113;28;20019;-63
2023/04/21 04:29:56;;;;;;;18.37;11.43;;;8.50;99.90;;;;;;5076391;28;20143;-63
2023/04/21 04:32:22;;;;;;;26.55;12.40;;;8.50;99.90;;;;;;5077018;28;20055;-75
2023/04/21 04:34:47;;;;;;;22.17;12.30;;;8.50;99.90;;;;;;5077030;28;20056;-63
2023/04/21 04:37:13;;;;;;;22.60;13.33;;;8.50;99.90;;;;;;5076402;28;20044;-63
2023/04/21 04:39:39;;;;;;;23.27;12.63;;;8.50;99.90;;;;;;5076952;28;20047;-63
2023/04/21 04:42:08;;;;;;;24.80;12.03;;;8.50;99.90;;;;;;5076331;28;20073;-64
2023/04/21 04:44:35;;;;;;;23.20;12.35;;;8.50;99.90;;;;;;5076585;28;20085;-63
2023/04/21 04:47:00;;;;;;;24.80;13.55;;;8.50;99.90;;;;;;5076649;28;20105;-63
2023/04/21 04:49:26;;;;;;;23.43;11.97;;;8.50;99.90;;;;;;5076715;28;20454;-75
2023/04/21 04:51:53;;;;;;;24.27;12.23;;;8.50;99.90;;;;;;5076277;28;20027;-63
2023/04/21 04:54:18;;;;;;;24.85;13.75;;;8.50;99.90;;;;;;5076684;28;20107;-63
2023/04/21 04:56:44;;;;;;;27.87;14.77;;;8.50;99.90;;;;;;5076525;28;20134;-63
2023/04/21 04:59:10;;;;;;;27.07;15.10;;;8.50;99.90;;;;;;5076333;28;20020;-64
2023/04/21 05:01:37;;;;;;;26.73;14.70;;;8.50;99.90;;;;;;5076688;28;20498;-63
2023/04/21 05:04:02;;;;;;;;;;;8.50;99.90;;;;;;5076142;28;20135;-63
2023/04/21 05:06:28;;;;;;;29.83;13.93;;;8.50;99.90;;;;;;5076437;28;19995;-75
2023/04/21 05:08:55;;;;;;;33.60;17.13;;;8.60;99.90;;;;;;5076045;28;20426;-63
2023/04/21 05:11:21;;;;;;;31.13;16.50;;;8.50;99.90;;;;;;5075968;28;20071;-63
2023/04/21 05:13:46;;;;;;;29.53;15.23;;;8.50;99.90;;;;;;5076434;28;20032;-63
2023/04/21 05:16:12;;;;;;;35.00;17.43;;;8.60;99.90;;;;;;5075648;28;20680;-63
2023/04/21 05:18:38;;;;;;;25.53;15.10;;;8.60;99.90;;;;;;5076008;28;20024;-63
2023/04/21 05:21:03;;;;;;;31.73;16.70;;;8.60;99.90;;;;;;5075889;28;20033;-63
2023/04/21 05:23:29;;;;;;;34.80;17.57;;;8.60;99.90;;;;;;5075682;28;20104;-63
2023/04/21 05:25:55;;;;;;;31.27;17.13;;;8.60;99.90;;;;;;5075886;28;20052;-63
2023/04/21 05:28:22;;;;;;;33.27;18.03;;;8.60;99.90;;;;;;5074136;28;20139;-63
2023/04/21 05:30:48;;;;;;;30.17;16.08;;;8.60;99.90;;;;;;5075850;28;20050;-63
2023/04/21 05:33:16;;;;;;;30.50;16.60;;;8.70;99.90;;;;;;5075402;28;20032;-64
2023/04/21 05:35:42;;;;;;;35.13;17.05;;;8.70;99.90;;;;;;5076011;28;20332;-63
2023/04/21 05:38:08;;;;;;;35.63;17.63;;;8.60;99.90;;;;;;5075704;28;20021;-63
2023/04/21 05:40:33;;;;;;;35.00;16.93;;;8.70;99.90;;;;;;5073964;28;20021;-63
2023/04/21 05:42:59;;;;;;;32.97;18.73;;;8.70;99.90;;;;;;5075479;28;20476;-63
2023/04/21 05:45:25;;;;;;;36.43;18.73;;;8.70;99.90;;;;;;5075379;28;20025;-63
2023/04/21 05:47:50;;;;;;;36.03;18.20;;;8.80;99.90;;;;;;5075071;28;20016;-63
2023/04/21 05:50:16;;;;;;;31.90;17.97;;;8.80;99.90;;;;;;5074944;28;20052;-75
2023/04/21 05:52:42;;;;;;;30.20;16.63;;;8.80;99.90;;;;;;5075342;28;20016;-63
2023/04/21 05:55:07;;;;;;;29.63;16.63;;;8.80;99.90;;;;;;5075367;28;20020;-63
2023/04/21 05:57:33;;;;;;;29.13;16.90;;;8.90;99.90;;;;;;5075018;28;20021;-63
2023/04/21 05:59:59;;;;;;;31.00;18.13;;;8.90;99.90;;;;;;5075346;28;20051;-63
2023/04/21 06:02:24;;;;;;;35.50;18.30;;;8.90;99.90;;;;;;5074995;28;20055;-63
2023/04/21 06:04:50;;;;;;;31.57;16.90;;;9.00;99.90;;;;;;5075053;28;20028;-63
2023/04/21 06:07:16;;;;;;;33.80;17.30;;;9.00;99.90;;;;;;5074569;28;20047;-62
2023/04/21 06:09:42;;;;;;;32.08;17.92;;;9.00;99.90;;;;;;5075199;28;20009;-63
2023/04/21 06:12:08;;;;;;;31.53;17.97;;;9.00;99.90;;;;;;5075262;28;20055;-63
2023/04/21 06:14:33;;;;;;;30.57;17.90;;;9.10;99.90;;;;;;5074659;28;20020;-62
2023/04/21 06:16:59;;;;;;;33.40;19.40;;;9.10;99.90;;;;;;5074872;28;20024;-76
2023/04/21 06:19:25;;;;;;;33.10;18.40;;;9.20;99.90;;;;;;5073967;28;20029;-63
2023/04/21 06:21:51;;;;;;;31.43;18.00;;;9.20;99.90;;;;;;5074618;28;20033;-63
2023/04/21 06:24:23;;;;;;;32.23;18.40;;;9.10;99.90;;;;;;5073911;28;20312;-63
2023/04/21 06:26:50;;;;;;;36.80;19.33;;;9.20;99.90;;;;;;5073557;28;20017;-62
2023/04/21 06:29:16;;;;;;;35.60;19.83;;;9.30;99.90;;;;;;5074591;28;20382;-62
2023/04/21 06:31:42;;;;;;;35.20;20.70;;;9.30;99.90;;;;;;5074416;28;20024;-63
2023/04/21 06:34:08;;;;;;;41.70;21.27;;;9.30;99.90;;;;;;5074949;28;20020;-78
2023/04/21 06:36:33;;;;;;;34.63;20.37;;;9.30;99.90;;;;;;5074452;28;20112;-62
2023/04/21 06:38:59;;;;;;;36.43;20.30;;;9.30;99.90;;;;;;5075071;28;20024;-63
2023/04/21 06:41:25;;;;;;;39.47;21.70;;;9.30;99.90;;;;;;5074666;28;20024;-63
2023/04/21 06:43:51;;;;;;;45.23;21.77;;;9.30;99.90;;;;;;5074702;28;20028;-63
2023/04/21 06:46:17;;;;;;;35.57;20.37;;;9.30;99.90;;;;;;5075101;28;20028;-63
2023/04/21 06:48:42;;;;;;;36.27;20.77;;;9.30;99.90;;;;;;5074350;28;20016;-62
2023/04/21 06:51:08;;;;;;;40.17;22.10;;;9.40;99.90;;;;;;5074740;28;20078;-77
2023/04/21 06:53:37;;;;;;;39.73;21.73;;;9.40;99.90;;;;;;5074563;28;20027;-63
2023/04/21 06:56:03;;;;;;;40.42;21.83;;;9.50;99.90;;;;;;5074721;28;20407;-62
2023/04/21 06:58:28;;;;;;;39.15;21.75;;;9.60;99.90;;;;;;5074465;28;20166;-63
2023/04/21 07:00:54;;;;;;;37.40;20.83;;;9.70;99.90;;;;;;5078045;28;20348;-63
2023/04/21 07:03:20;;;;;;;39.20;19.57;;;9.70;99.90;;;;;;5078716;28;20066;-63
2023/04/21 07:05:46;;;;;;;38.67;21.83;;;9.70;99.90;;;;;;5078335;28;20044;-63
2023/04/21 07:08:11;;;;;;;38.23;21.70;;;9.70;99.90;;;;;;5078420;28;20426;-76
2023/04/21 07:10:37;;;;;;;43.50;22.73;;;9.80;99.90;;;;;;5078160;28;20024;-62
2023/04/21 07:13:02;;;;;;;43.33;21.83;;;9.80;99.90;;;;;;5078395;28;20028;-62
2023/04/21 07:15:28;;;;;;;40.83;22.00;;;9.90;99.90;;;;;;5078425;28;20028;-62
2023/04/21 07:17:54;;;;;;;38.97;22.03;;;9.90;99.90;;;;;;5077852;28;20025;-64
2023/04/21 07:20:20;;;;;;;44.60;22.23;;;10.00;99.90;;;;;;5078095;28;20039;-62
2023/04/21 07:22:45;;;;;;;51.67;22.40;;;10.00;99.90;;;;;;5078209;28;20032;-62
2023/04/21 07:25:11;;;;;;;35.93;21.40;;;10.10;99.90;;;;;;5077807;28;20345;-62
2023/04/21 07:27:37;;;;;;;42.10;20.43;;;10.20;99.90;;;;;;5078308;28;20020;-62
2023/04/21 07:30:04;;;;;;;40.83;22.13;;;10.20;99.90;;;;;;5077442;28;20048;-62
2023/04/21 07:32:30;;;;;;;;;;;10.30;99.90;;;;;;5078637;28;20312;-62
2023/04/21 07:34:56;;;;;;;41.47;21.00;;;10.40;99.90;;;;;;5078000;28;19913;-63
2023/04/21 07:37:23;;;;;;;39.78;22.27;;;10.50;99.90;;;;;;5077702;28;20413;-62
2023/04/21 07:39:49;;;;;;;48.70;24.77;;;10.90;99.90;;;;;;5078243;28;20028;-62
2023/04/21 07:42:15;;;;;;;43.33;23.97;;;11.40;99.90;;;;;;5077411;28;20051;-62
2023/04/21 07:44:40;;;;;;;41.40;24.30;;;11.80;99.90;;;;;;5077753;28;20479;-62
2023/04/21 07:47:06;;;;;;;40.60;23.53;;;12.10;99.90;;;;;;5077576;28;20017;-63
2023/04/21 07:49:32;;;;;;;29.93;18.60;;;12.50;99.90;;;;;;5076427;28;20017;-63
2023/04/21 07:51:58;;;;;;;31.87;20.13;;;12.60;99.90;;;;;;5077741;28;20112;-76
2023/04/21 07:54:24;;;;;;;37.77;20.93;;;12.80;99.90;;;;;;5077520;28;20323;-63
2023/04/21 07:56:49;;;;;;;32.43;17.87;;;12.90;99.90;;;;;;5077732;28;20077;-63
2023/04/21 07:59:15;;;;;;;30.77;18.33;;;12.70;99.90;;;;;;5077106;28;20055;-62
2023/04/21 08:01:41;;;;;;;28.53;17.33;;;12.50;99.90;;;;;;5077503;28;20028;-78
2023/04/21 08:04:06;;;;;;;29.43;17.67;;;12.50;99.90;;;;;;5076989;28;20374;-63
2023/04/21 08:06:32;;;;;;;32.90;18.50;;;12.30;99.90;;;;;;5077901;28;20028;-63
2023/04/21 08:08:58;;;;;;;37.00;19.53;;;12.30;99.90;;;;;;5076868;28;20142;-62
2023/04/21 08:11:24;;;;;;;35.20;20.73;;;12.30;99.90;;;;;;5076519;28;20296;-62
2023/04/21 08:13:50;;;;;;;30.75;19.05;;;12.30;99.90;;;;;;5077338;28;20395;-62
2023/04/21 08:16:16;;;;;;;30.27;17.90;;;12.30;99.90;;;;;;5076903;28;20030;-63
2023/04/21 08:18:41;;;;;;;35.33;19.00;;;12.40;99.90;;;;;;5077120;28;20028;-77
2023/04/21 08:21:07;;;;;;;32.50;18.53;;;12.40;99.90;;;;;;5077165;28;20024;-63
2023/04/21 08:23:33;;;;;;;30.60;17.93;;;12.40;99.90;;;;;;5076588;28;20052;-63
2023/04/21 08:26:00;;;;;;;32.73;18.37;;;12.40;99.90;;;;;;5077112;28;20024;-63
2023/04/21 08:28:26;;;;;;;37.53;19.63;;;12.30;99.90;;;;;;5076575;28;20430;-63
2023/04/21 08:30:52;;;;;;;36.63;19.07;;;12.30;99.90;;;;;;5076954;28;20020;-62
2023/04/21 08:33:17;;;;;;;34.57;20.03;;;12.20;99.90;;;;;;5076708;28;20056;-63
2023/04/21 08:35:43;;;;;;;34.53;20.17;;;12.20;99.90;;;;;;5075836;28;20415;-63
2023/04/21 08:38:09;;;;;;;28.30;19.23;;;12.20;99.90;;;;;;5076925;28;20716;-63
2023/04/21 08:40:37;;;;;;;35.10;19.60;;;12.30;99.90;;;;;;5076429;28;20403;-62
2023/04/21 08:43:07;;;;;;;32.17;18.48;;;12.40;99.90;;;;;;5076961;28;20048;-63
2023/04/21 08:45:33;;;;;;;29.50;18.52;;;12.30;99.90;;;;;;5076224;28;20028;-62
2023/04/21 08:48:01;;;;;;;34.65;19.63;;;12.30;99.90;;;;;;5075520;28;20060;-62
2023/04/21 08:50:29;;;;;;;32.83;18.35;;;12.40;99.90;;;;;;5076204;28;20103;-62
2023/04/21 08:52:55;;;;;;;34.70;19.85;;;12.50;99.90;;;;;;5076711;28;20016;-64
2023/04/21 08:55:26;;;;;;;36.07;19.80;;;12.60;99.90;;;;;;5076073;28;20040;-63
2023/04/21 08:57:52;;;;;;;35.45;19.02;;;12.80;99.90;;;;;;5076641;28;20024;-63
2023/04/21 09:00:17;;;;;;;34.77;21.17;;;12.70;99.90;;;;;;5076304;28;20028;-62
2023/04/21 09:03:02;;;;;;;32.67;19.97;;;12.80;99.90;;;;;;5076331;28;20024;-63
2023/04/21 09:05:33;;;;;;;35.08;19.65;;;12.80;99.90;;;;;;5075996;28;20032;-63
2023/04/21 09:08:11;;;;;;;31.70;18.80;;;12.90;99.90;;;;;;5076247;28;20028;-63
2023/04/21 09:10:50;;;;;;;32.40;18.85;;;13.10;99.90;;;;;;5075874;28;20027;-62
2023/04/21 09:13:17;;;;;;;34.83;19.63;;;13.10;99.90;;;;;;5076191;28;20028;-63
2023/04/21 09:15:45;;;;;;;33.65;19.13;;;13.00;99.90;;;;;;5075601;28;20028;-63
2023/04/21 09:18:15;;;;;;;31.63;18.50;;;13.10;99.90;;;;;;5075928;28;20028;-63
2023/04/21 09:20:42;;;;;;;30.33;18.65;;;13.20;99.90;;;;;;5076075;28;20056;-75
2023/04/21 09:23:09;;;;;;;30.95;18.17;;;13.30;99.90;;;;;;5074852;28;20055;-63
2023/04/21 09:25:38;;;;;;;32.05;18.40;;;13.30;99.90;;;;;;5075852;28;20025;-63
2023/04/21 09:28:12;;;;;;;30.27;18.75;;;13.30;99.90;;;;;;5075586;28;20415;-63
2023/04/21 09:30:42;;;;;;;33.03;18.85;;;13.40;99.90;;;;;;5075755;28;20320;-63
2023/04/21 09:33:15;;;;;;;31.25;18.27;;;13.60;99.90;;;;;;5075328;28;20406;-63
2023/04/21 09:35:41;;;;;;;27.85;18.25;;;13.60;99.90;;;;;;5075727;28;20032;-76
2023/04/21 09:38:11;;;;;;;28.23;16.17;;;13.80;99.90;;;;;;5075855;28;20024;-63
2023/04/21 09:40:37;;;;;;;31.60;18.67;;;13.70;99.90;;;;;;5075100;28;20055;-63
2023/04/21 09:43:03;;;;;;;34.60;19.95;;;13.60;99.90;;;;;;5075805;28;20032;-63
2023/04/21 09:45:29;;;;;;;27.63;15.53;;;13.40;99.90;;;;;;5075058;28;20028;-63
2023/04/21 09:47:59;;;;;;;34.43;15.33;;;13.10;99.90;;;;;;5075592;28;20055;-63
2023/04/21 09:50:25;;;;;;;33.90;18.67;;;13.00;99.90;;;;;;5075058;28;20031;-63
2023/04/21 09:52:53;;;;;;;28.23;18.63;;;13.00;99.90;;;;;;5074186;28;20028;-64
2023/04/21 09:55:27;;;;;;;34.60;20.45;;;13.10;99.90;;;;;;5074895;28;20037;-63
2023/04/21 09:58:01;;;;;;;31.75;19.02;;;13.20;99.90;;;;;;5075488;28;20408;-63
2023/04/21 10:00:28;;;;;;;32.72;19.13;;;13.40;99.90;;;;;;5075094;28;20035;-63
2023/04/21 10:02:56;;;;;;;30.85;18.05;;;13.40;99.90;;;;;;5075317;28;20372;-65
2023/04/21 10:05:22;;;;;;;35.95;20.52;;;13.30;99.90;;;;;;5074941;28;20032;-63
2023/04/21 10:07:49;;;;;;;32.63;19.10;;;13.00;99.90;;;;;;5075219;28;20067;-63
2023/04/21 10:10:30;;;;;;;33.95;18.98;;;12.70;99.90;;;;;;5075455;28;20021;-64
2023/04/21 10:12:57;;;;;;;36.75;19.90;;;12.70;99.90;;;;;;5074675;28;20092;-63
2023/04/21 10:15:30;;;;;;;26.23;16.08;;;12.70;99.90;;;;;;5074993;28;20060;-62
2023/04/21 10:18:22;;;;;;;28.95;17.38;;;12.60;99.90;;;;;;5074627;28;20042;-63
2023/04/21 10:20:56;;;;;;;29.17;17.23;;;12.30;99.90;;;;;;5074911;28;20419;-63
2023/04/21 10:23:25;;;;;;;32.03;18.27;;;12.20;99.90;;;;;;5074682;28;20449;-63
2023/04/21 10:25:51;;;;;;;34.38;18.38;;;12.10;99.90;;;;;;5075100;28;20056;-78
2023/04/21 10:28:17;;;;;;;30.83;18.37;;;12.00;99.90;;;;;;5073624;28;20394;-64
2023/04/21 10:30:43;;;;;;;29.57;16.83;;;12.00;99.90;;;;;;5074876;28;20086;-78
2023/04/21 10:33:08;;;;;;;33.70;19.60;;;11.90;99.90;;;;;;5074610;28;20031;-63
2023/04/21 10:35:57;;;;;;;34.80;19.97;;;12.10;99.90;;;;;;5074489;28;20021;-63
2023/04/21 10:38:41;;;;;;;29.48;19.83;;;12.30;99.90;;;;;;5074948;28;20052;-63
2023/04/21 10:41:36;;;;;;;30.70;20.65;;;12.80;99.90;;;;;;5074874;28;20047;-63
2023/04/21 10:44:15;;;;;;;35.50;19.35;;;13.10;99.90;;;;;;4979166;28;20073;-76
2023/04/21 10:46:49;;;;;;;30.23;18.75;;;13.10;99.90;;;;;;4993509;28;20034;-63
2023/04/21 10:49:29;;;;;;;33.03;19.85;;;13.10;99.90;;;;;;4993342;28;20037;-63
2023/04/21 10:52:06;;;;;;;33.15;19.90;;;13.10;99.90;;;;;;4993055;28;20093;-62
2023/04/21 10:54:35;;;;;;;33.63;19.23;;;13.20;99.90;;;;;;4993123;28;20038;-63
2023/04/21 10:57:04;;;;;;;36.70;20.48;;;13.20;99.90;;;;;;4992956;28;20034;-63
2023/04/21 10:59:30;;;;;;;32.58;19.38;;;13.30;99.90;;;;;;4993365;28;20113;-63
2023/04/21 11:01:56;;;;;;;23.97;14.70;;;13.40;99.90;;;;;;4993357;28;20280;-63
2023/04/21 11:04:22;;;;;;;31.55;19.02;;;13.60;99.90;;;;;;4990287;28;20430;-75
2023/04/21 11:07:06;;;;;;;36.57;20.23;;;13.60;99.90;;;;;;4992593;28;20030;-63
2023/04/21 11:09:34;;;;;;;31.70;19.58;;;13.80;99.90;;;;;;4991931;28;20092;-63
2023/04/21 11:12:03;;;;;;;31.52;19.75;;;13.80;99.90;;;;;;4992414;28;20022;-64
2023/04/21 11:14:29;;;;;;;33.08;18.35;;;13.90;99.90;;;;;;4991862;28;20109;-63
2023/04/21 11:16:55;;;;;;;30.77;18.33;;;14.00;99.90;;;;;;4992361;28;20027;-63
2023/04/21 11:19:24;;;;;;;31.73;18.15;;;14.20;99.90;;;;;;4997812;28;20458;-75
2023/04/21 11:21:53;;;;;;;32.30;19.08;;;14.10;99.90;;;;;;5073683;28;20089;-64
2023/04/21 11:24:20;;;;;;;32.83;19.25;;;14.00;99.90;;;;;;5073496;28;20060;-63
2023/04/21 11:26:46;;;;;;;33.67;20.17;;;14.00;99.90;;;;;;5073687;28;20048;-63
2023/04/21 11:29:13;;;;;;;29.30;19.67;;;13.90;99.90;;;;;;5073490;28;20048;-75
2023/04/21 11:31:41;;;;;;;27.80;15.85;;;13.80;99.90;;;;;;5072138;28;20301;-63
2023/04/21 11:34:07;;;;;;;33.33;18.33;;;13.70;99.90;;;;;;5073594;28;20032;-63
2023/04/21 11:36:34;;;;;;;30.30;18.40;;;13.50;99.90;;;;;;5073171;28;20575;-63
2023/04/21 11:39:06;;;;;;;;;;;13.50;99.90;;;;;;5074076;28;20032;-63
2023/04/21 11:41:32;;;;;;;34.30;17.23;;;13.50;99.90;;;;;;5073556;28;19908;-63
2023/04/21 11:43:58;;;;;;;32.60;18.23;;;13.60;99.90;;;;;;5072983;28;20354;-74
2023/04/21 11:46:28;;;;;;;32.23;17.70;;;13.60;99.90;;;;;;5074655;28;20250;-63
2023/04/21 11:49:01;;;;;;;29.80;18.42;;;13.70;99.90;;;;;;5075417;28;20021;-63
2023/04/21 11:51:41;;;;;;;32.00;18.52;;;13.70;99.90;;;;;;5077183;28;20043;-63
2023/04/21 11:54:09;;;;;;;30.25;18.45;;;13.70;99.90;;;;;;5076600;28;20025;-63
2023/04/21 11:56:45;;;;;;;36.78;18.27;;;13.60;99.90;;;;;;5076996;28;20501;-64
2023/04/21 11:59:13;;;;;;;32.92;18.63;;;13.70;99.90;;;;;;5076477;28;20380;-73
2023/04/21 12:01:46;;;;;;;33.47;17.55;;;13.90;99.90;;;;;;5076959;28;20097;-63
2023/04/21 12:04:17;;;;;;;31.13;18.80;;;14.20;99.90;;;;;;5076409;28;20051;-76
2023/04/21 12:06:54;;;;;;;24.67;13.40;;;14.30;99.90;;;;;;5077154;28;20094;-63
2023/04/21 12:09:20;;;;;;;;;;;14.30;99.90;;;;;;5076719;28;20040;-63
2023/04/21 12:11:51;;;;;;;30.80;17.40;;;14.10;99.90;;;;;;5076740;28;19933;-64
2023/04/21 12:14:20;;;;;;;32.53;17.27;;;14.10;99.90;;;;;;5076283;28;20415;-63
2023/04/21 12:17:06;;;;;;;29.10;16.92;;;14.30;99.90;;;;;;5076802;28;20109;-64
2023/04/21 12:19:40;;;;;;;32.50;18.55;;;14.40;99.90;;;;;;5076177;28;20036;-63
2023/04/21 12:22:10;;;;;;;30.20;17.42;;;14.60;99.90;;;;;;5076524;28;20032;-63
2023/04/21 12:24:36;;;;;;;31.88;17.15;;;15.00;99.90;;;;;;5076597;28;20044;-64
2023/04/21 12:27:03;;;;;;;29.63;16.85;;;15.10;99.90;;;;;;5062772;28;20021;-64
2023/04/21 12:29:28;;;;;;;24.55;13.48;;;15.30;99.90;;;;;;5075358;28;20317;-63
2023/04/21 12:31:54;;;;;;;31.47;16.70;;;15.20;99.90;;;;;;5075747;28;20050;-64
2023/04/21 12:34:20;;;;;;;28.38;16.83;;;14.70;99.90;;;;;;5076893;28;20024;-63
2023/04/21 12:36:46;;;;;;;30.10;16.20;;;14.50;99.90;;;;;;5076054;28;20036;-63